Time;durP1;ratioP1;P1;durP2;ratioP2;P2;SDS_P1;SDS_P2;PMS_P1;PMS_P2;Temp;Humidity;BMP_temperature;BMP_pressure;BME280_temperature;BME280_humidity;BME280_pressure;Samples;Min_cycle;Max_cycle;Signal;HPM_P1;HPM_P2
2022/08/06 00:00:50;;;;;;;1.55;0.50;;;;;;;25.32;37.85;102486.56;5047595;28;20036;-59
2022/08/06 00:03:16;;;;;;;1.50;0.43;;;;;;;25.30;37.83;102485.88;5047337;28;20022;-58
2022/08/06 00:05:41;;;;;;;1.88;0.40;;;;;;;25.18;37.83;102469.88;5047468;28;20471;-59
2022/08/06 00:08:06;;;;;;;1.63;0.90;;;;;;;25.28;37.81;102488.78;5047694;28;20033;-60
2022/08/06 00:10:31;;;;;;;0.82;0.43;;;;;;;25.29;37.79;102489.63;5029676;28;20025;-60
2022/08/06 00:12:58;;;;;;;1.15;0.50;;;;;;;25.27;37.80;102494.38;5046936;28;20143;-59
2022/08/06 00:15:23;;;;;;;1.08;0.70;;;;;;;25.26;37.94;102501.69;5047468;28;20029;-60
2022/08/06 00:17:48;;;;;;;1.67;0.68;;;;;;;25.26;37.79;102500.84;5047078;28;20029;-60
2022/08/06 00:20:15;;;;;;;1.92;0.40;;;;;;;25.24;37.80;102502.91;5029357;28;20491;-59
2022/08/06 00:22:41;;;;;;;1.15;0.57;;;;;;;25.23;37.88;102502.03;5047327;28;20021;-58
2022/08/06 00:25:14;;;;;;;1.45;0.70;;;;;;;25.23;37.88;102506.63;5047322;28;20029;-59
2022/08/06 00:27:39;;;;;;;1.85;0.50;;;;;;;25.21;37.78;102508.69;5043240;28;20021;-59
2022/08/06 00:30:06;;;;;;;1.63;0.68;;;;;;;25.16;37.67;102503.75;5027548;28;20025;-59
2022/08/06 00:32:32;;;;;;;1.05;0.50;;;;;;;25.20;37.64;102509.72;5026964;28;20044;-59
2022/08/06 00:34:57;;;;;;;1.98;0.50;;;;;;;25.14;37.66;102501.19;5026545;28;20547;-60
2022/08/06 00:37:22;;;;;;;1.20;0.70;;;;;;;25.18;37.97;102509.88;5027266;28;20022;-59
2022/08/06 00:39:48;;;;;;;1.23;0.63;;;;;;;25.17;37.73;102513.63;5026828;28;20029;-59
2022/08/06 00:42:13;;;;;;;1.00;0.60;;;;;;;25.16;37.78;102515.50;5026915;28;20030;-59
2022/08/06 00:44:38;;;;;;;1.23;0.40;;;;;;;25.12;37.69;102510.56;5026863;28;20030;-58
2022/08/06 00:47:04;;;;;;;2.05;0.57;;;;;;;25.15;37.95;102526.56;5027082;28;20372;-59
2022/08/06 00:49:29;;;;;;;0.77;0.43;;;;;;;25.13;37.67;102529.44;5026021;28;20133;-59
2022/08/06 00:51:54;;;;;;;2.03;0.60;;;;;;;25.13;37.80;102534.03;5027086;28;20050;-59
2022/08/06 00:54:20;;;;;;;2.33;0.90;;;;;;;25.12;37.70;102526.91;5026256;28;20029;-59
2022/08/06 00:56:46;;;;;;;3.40;0.70;;;;;;;25.12;37.79;102540.50;5026703;28;20053;-59
2022/08/06 00:59:11;;;;;;;1.38;0.60;;;;;;;25.11;37.69;102533.38;5026786;28;20022;-59
2022/08/06 01:01:37;;;;;;;0.98;0.50;;;;;;;25.10;37.64;102537.94;5026248;28;20030;-59
2022/08/06 01:04:02;;;;;;;3.70;0.73;;;;;;;25.09;37.63;102533.53;5032413;28;20022;-60
2022/08/06 01:06:27;;;;;;;0.90;0.30;;;;;;;25.09;37.84;102536.25;5039820;28;20093;-59
2022/08/06 01:08:53;;;;;;;1.00;0.65;;;;;;;25.06;37.66;102539.28;5026403;28;20029;-59
2022/08/06 01:11:18;;;;;;;1.05;0.50;;;;;;;25.06;37.53;102547.47;5038087;28;20029;-59
2022/08/06 01:13:43;;;;;;;1.80;0.60;;;;;;;25.06;37.79;102552.91;5045872;28;20092;-58
2022/08/06 01:16:23;;;;;;;1.75;0.55;;;;;;;25.05;37.65;102555.78;5046490;28;20505;-59
2022/08/06 01:19:13;;;;;;;1.05;0.43;;;;;;;25.03;37.61;102553.22;5042726;28;20490;-58
2022/08/06 01:21:50;;;;;;;1.15;0.40;;;;;;;25.03;37.67;102557.81;5009007;28;20104;-60
2022/08/06 01:24:44;;;;;;;0.95;0.40;;;;;;;24.96;37.47;102540.47;5008720;28;20045;-60
2022/08/06 01:27:22;;;;;;;1.05;0.40;;;;;;;25.01;37.66;102559.84;5009164;28;20026;-60
2022/08/06 01:29:51;;;;;;;2.60;0.50;;;;;;;24.98;37.62;102555.63;5008935;28;20106;-58
2022/08/06 01:32:23;;;;;;;1.25;0.40;;;;;;;24.95;37.60;102553.22;5008635;28;20044;-59
2022/08/06 01:34:53;;;;;;;1.83;0.60;;;;;;;24.97;37.56;102558.47;5007444;28;20040;-59
2022/08/06 01:37:24;;;;;;;2.03;0.50;;;;;;;24.94;37.53;102556.97;5023026;28;20036;-60
2022/08/06 01:39:53;;;;;;;1.20;0.57;;;;;;;24.95;37.69;102561.38;5027938;28;20540;-59
2022/08/06 01:42:19;;;;;;;;;;;;;;;24.93;37.63;102557.97;5028375;28;20108;-59
2022/08/06 01:44:46;;;;;;;1.00;0.40;;;;;;;24.93;37.67;102563.41;5028083;28;20294;-59
2022/08/06 01:47:12;;;;;;;1.20;0.40;;;;;;;24.90;37.53;102559.19;5045621;28;20025;-59
2022/08/06 01:49:39;;;;;;;1.92;0.55;;;;;;;24.89;37.72;102560.19;5027402;28;20072;-59
2022/08/06 01:52:05;;;;;;;1.45;0.50;;;;;;;24.85;37.50;102560.69;5027900;28;20082;-59
2022/08/06 01:54:35;;;;;;;0.73;0.52;;;;;;;24.83;37.53;102557.28;5027784;28;20482;-59
2022/08/06 01:57:01;;;;;;;1.27;0.60;;;;;;;24.87;37.57;102567.66;5027663;28;20025;-59
2022/08/06 01:59:36;;;;;;;1.65;0.50;;;;;;;24.87;37.50;102577.69;5027758;28;20056;-60
2022/08/06 02:02:05;;;;;;;1.10;0.50;;;;;;;24.87;37.55;102574.97;5027595;28;20018;-59
2022/08/06 02:04:34;;;;;;;1.00;0.43;;;;;;;24.85;37.46;102575.16;5027372;28;20056;-59
2022/08/06 02:07:00;;;;;;;1.63;0.52;;;;;;;24.85;37.63;102568.84;5027068;28;20037;-59
2022/08/06 02:09:26;;;;;;;0.65;0.43;;;;;;;24.81;37.58;102571.06;5045286;28;20022;-59
2022/08/06 02:12:03;;;;;;;0.70;0.38;;;;;;;24.82;37.60;102566.47;5009409;28;20037;-59
2022/08/06 02:14:30;;;;;;;0.50;0.40;;;;;;;24.83;37.56;102573.63;5007703;28;20022;-59
2022/08/06 02:16:56;;;;;;;0.95;0.50;;;;;;;24.76;37.56;102556.25;5025425;28;20467;-59
2022/08/06 02:19:22;;;;;;;1.67;0.88;;;;;;;24.81;37.51;102581.09;5007423;28;20112;-59
2022/08/06 02:21:48;;;;;;;1.10;0.40;;;;;;;24.80;37.51;102579.38;5007948;28;20029;-59
2022/08/06 02:24:14;;;;;;;1.48;0.70;;;;;;;24.79;37.65;102578.53;5025305;28;20037;-60
2022/08/06 02:26:41;;;;;;;1.10;0.50;;;;;;;24.79;37.43;102585.84;5008069;28;20029;-60
2022/08/06 02:29:08;;;;;;;2.05;0.60;;;;;;;24.73;37.39;102576.50;5025351;28;20030;-59
2022/08/06 02:31:33;;;;;;;1.00;0.52;;;;;;;24.72;37.41;102572.06;5025365;28;20022;-60
2022/08/06 02:33:59;;;;;;;1.13;0.40;;;;;;;24.77;37.52;102585.19;5006948;28;20034;-60
2022/08/06 02:36:29;;;;;;;1.00;0.50;;;;;;;24.75;37.44;102585.31;5007853;28;20052;-59
2022/08/06 02:39:35;;;;;;;1.95;0.95;;;;;;;24.74;37.47;102582.78;5025270;28;20088;-60
2022/08/06 02:42:09;;;;;;;0.50;0.40;;;;;;;24.74;37.49;102594.50;4926162;29;20020;-60
2022/08/06 02:45:04;;;;;;;2.22;0.40;;;;;;;24.73;37.39;102594.69;4926116;29;20024;-59
2022/08/06 02:47:39;;;;;;;1.92;0.60;;;;;;;24.66;37.34;102589.06;4910379;29;20131;-60
2022/08/06 02:50:06;;;;;;;0.95;0.40;;;;;;;24.71;37.50;102600.28;4910016;29;20365;-60
2022/08/06 02:52:46;;;;;;;0.95;0.50;;;;;;;24.69;37.46;102595.03;4926151;29;20043;-60
2022/08/06 02:55:16;;;;;;;1.00;0.45;;;;;;;24.61;37.43;102583.25;4910488;29;20115;-59
2022/08/06 02:57:51;;;;;;;2.05;0.40;;;;;;;24.67;37.44;102588.88;4910255;29;20028;-60
2022/08/06 03:00:17;;;;;;;0.57;0.43;;;;;;;24.66;37.66;102594.50;4926407;29;20146;-59
2022/08/06 03:02:44;;;;;;;1.10;0.32;;;;;;;24.66;37.60;102591.78;4910392;29;20107;-59
2022/08/06 03:05:14;;;;;;;0.73;0.30;;;;;;;24.65;37.48;102595.53;4925643;29;20440;-59
2022/08/06 03:07:40;;;;;;;0.95;0.40;;;;;;;24.65;37.53;102600.97;4926089;29;20036;-59
2022/08/06 03:10:06;;;;;;;0.82;0.30;;;;;;;24.64;37.77;102589.22;4929552;29;20113;-59
2022/08/06 03:12:32;;;;;;;0.85;0.40;;;;;;;24.63;37.69;102587.50;4973273;28;20112;-60
2022/08/06 03:14:59;;;;;;;1.50;0.60;;;;;;;24.60;37.50;102582.41;5007291;28;20482;-59
2022/08/06 03:17:25;;;;;;;1.08;0.47;;;;;;;24.62;37.52;102591.25;5024455;28;20029;-59
2022/08/06 03:19:50;;;;;;;0.93;0.47;;;;;;;24.61;37.73;102586.84;5026919;28;20057;-59
2022/08/06 03:22:18;;;;;;;0.98;0.40;;;;;;;24.61;37.54;102592.28;5028825;28;20026;-59
2022/08/06 03:24:45;;;;;;;0.80;0.30;;;;;;;24.60;37.51;102595.16;5028215;28;20034;-59
2022/08/06 03:27:11;;;;;;;1.08;0.40;;;;;;;24.57;37.58;102592.78;5027363;28;20032;-59
2022/08/06 03:29:37;;;;;;;1.80;0.43;;;;;;;24.53;37.66;102591.41;5010760;28;20057;-59
2022/08/06 03:32:03;;;;;;;1.02;0.40;;;;;;;24.58;37.76;102602.63;5010689;28;20029;-60
2022/08/06 03:34:29;;;;;;;1.70;0.50;;;;;;;24.56;37.62;102600.09;5027516;28;20064;-59
2022/08/06 03:36:55;;;;;;;1.35;0.82;;;;;;;24.56;37.69;102608.25;5028332;28;20030;-59
2022/08/06 03:39:21;;;;;;;1.45;0.50;;;;;;;24.48;37.70;102591.06;5026808;28;20058;-58
2022/08/06 03:41:46;;;;;;;1.55;0.40;;;;;;;24.55;37.75;102611.09;5028305;28;20022;-59
2022/08/06 03:44:12;;;;;;;0.95;0.40;;;;;;;24.54;37.85;102607.53;5026589;28;20026;-60
2022/08/06 03:46:42;;;;;;;2.05;0.60;;;;;;;24.54;37.76;102612.13;5010689;28;20030;-60
2022/08/06 03:49:10;;;;;;;0.70;0.50;;;;;;;24.50;37.82;102611.59;5026250;28;20029;-59
2022/08/06 03:51:36;;;;;;;1.02;0.43;;;;;;;24.52;37.66;102612.31;5007249;28;20035;-60
2022/08/06 03:54:03;;;;;;;0.47;0.32;;;;;;;24.51;37.81;102615.16;5007056;28;20094;-59
2022/08/06 03:56:29;;;;;;;1.35;0.50;;;;;;;24.51;37.67;102617.88;5007343;28;20032;-60
2022/08/06 03:58:58;;;;;;;0.80;0.30;;;;;;;24.44;37.66;102612.28;5006883;28;20057;-60
2022/08/06 04:01:26;;;;;;;1.25;0.38;;;;;;;24.50;37.64;102622.47;5007211;28;20027;-60
2022/08/06 04:03:51;;;;;;;1.05;0.32;;;;;;;24.42;37.61;102603.41;5007848;28;20030;-60
2022/08/06 04:06:18;;;;;;;0.73;0.55;;;;;;;24.50;37.89;102629.78;5006703;28;20029;-60
2022/08/06 04:08:44;;;;;;;1.63;0.50;;;;;;;24.48;37.89;102629.97;5006837;28;20026;-59
2022/08/06 04:11:11;;;;;;;1.08;0.50;;;;;;;24.48;37.80;102631.84;5019243;28;20025;-59
2022/08/06 04:13:37;;;;;;;2.58;0.50;;;;;;;24.47;37.77;102632.84;5027379;28;20114;-59
2022/08/06 04:16:03;;;;;;;0.88;0.30;;;;;;;24.47;37.74;102638.28;5027655;28;20030;-60
2022/08/06 04:18:33;;;;;;;1.25;0.47;;;;;;;24.46;38.01;102639.28;5027626;28;20021;-59
2022/08/06 04:21:03;;;;;;;1.13;0.60;;;;;;;24.39;37.63;102626.38;5027371;28;20032;-59
2022/08/06 04:23:29;;;;;;;1.55;0.40;;;;;;;24.41;37.87;102637.06;5027809;28;20042;-59
2022/08/06 04:25:56;;;;;;;0.90;0.38;;;;;;;24.43;37.72;102635.91;5027410;28;20571;-59
2022/08/06 04:28:23;;;;;;;0.63;0.30;;;;;;;24.43;37.85;102638.63;5027111;28;20116;-59
2022/08/06 04:30:49;;;;;;;0.82;0.40;;;;;;;24.42;37.74;102636.91;5026433;28;20136;-60
2022/08/06 04:33:17;;;;;;;1.23;0.40;;;;;;;24.42;38.14;102644.19;5025744;28;20029;-59
2022/08/06 04:35:43;;;;;;;1.17;0.45;;;;;;;24.41;37.98;102645.22;5025472;28;20471;-59
2022/08/06 04:38:10;;;;;;;1.10;0.55;;;;;;;24.42;38.10;102646.91;5027245;28;20037;-59
2022/08/06 04:40:38;;;;;;;1.50;0.50;;;;;;;24.37;38.08;102643.81;5027049;28;20022;-59
2022/08/06 04:43:08;;;;;;;1.10;0.40;;;;;;;24.40;38.03;102654.41;5026699;28;20033;-60
2022/08/06 04:45:36;;;;;;;0.65;0.30;;;;;;;24.39;38.12;102653.56;5026984;28;20057;-59
2022/08/06 04:48:03;;;;;;;0.98;0.47;;;;;;;24.40;38.18;102657.13;5025508;28;20025;-59
2022/08/06 04:50:30;;;;;;;0.85;0.50;;;;;;;24.38;38.11;102649.13;5008824;28;20128;-59
2022/08/06 04:53:05;;;;;;;1.27;0.50;;;;;;;24.28;38.12;102634.78;5025825;28;20029;-59
2022/08/06 04:55:31;;;;;;;0.98;0.45;;;;;;;24.39;37.94;102659.00;5026938;28;20041;-60
2022/08/06 04:57:56;;;;;;;1.25;0.57;;;;;;;24.38;38.29;102654.56;5026852;28;20034;-60
2022/08/06 05:00:22;;;;;;;1.10;0.50;;;;;;;24.37;38.33;102655.56;5026762;28;20037;-59
2022/08/06 05:02:47;;;;;;;2.05;0.65;;;;;;;24.37;38.20;102666.44;5026392;28;20030;-59
2022/08/06 05:05:14;;;;;;;0.70;0.40;;;;;;;24.32;38.21;102663.34;5025458;28;20057;-59
2022/08/06 05:07:40;;;;;;;0.88;0.50;;;;;;;24.37;38.33;102669.16;5010499;28;20054;-60
2022/08/06 05:10:06;;;;;;;1.65;0.68;;;;;;;24.08;38.25;102630.59;5009095;28;20018;-60
2022/08/06 05:12:44;;;;;;;1.92;0.60;;;;;;;24.36;38.38;102675.59;5025065;28;20030;-59
2022/08/06 05:15:27;;;;;;;0.93;0.50;;;;;;;24.37;38.43;102684.59;5026418;28;20022;-60
2022/08/06 05:18:01;;;;;;;1.63;1.08;;;;;;;24.34;38.58;102677.63;5024931;28;20897;-58
2022/08/06 05:20:28;;;;;;;1.75;0.40;;;;;;;24.28;38.54;102670.09;5025490;28;20026;-58
2022/08/06 05:22:57;;;;;;;1.42;0.75;;;;;;;24.36;38.56;102680.19;5025966;28;20056;-59
2022/08/06 05:25:22;;;;;;;;;;;;;;;24.35;38.32;102681.19;5025920;28;20018;-59
2022/08/06 05:27:47;;;;;;;1.10;0.40;;;;;;;24.35;38.41;102678.47;5026237;28;19920;-60
2022/08/06 05:30:13;;;;;;;1.48;0.45;;;;;;;24.34;38.56;102685.78;5024473;28;20045;-60
2022/08/06 05:32:46;;;;;;;2.17;0.40;;;;;;;24.33;38.72;102692.22;5025565;28;20038;-60
2022/08/06 05:35:12;;;;;;;1.45;0.57;;;;;;;24.24;38.46;102679.59;5025519;28;20089;-59
2022/08/06 05:37:38;;;;;;;1.20;0.68;;;;;;;24.29;38.68;102685.38;5025317;28;20034;-59
2022/08/06 05:40:04;;;;;;;1.67;0.70;;;;;;;24.31;38.52;102696.13;5025936;28;20105;-59
2022/08/06 05:42:29;;;;;;;1.55;0.60;;;;;;;24.32;38.67;102706.81;5025280;28;20026;-60
2022/08/06 05:44:54;;;;;;;1.23;0.60;;;;;;;24.32;38.74;102700.53;5024965;28;20454;-59
2022/08/06 05:47:23;;;;;;;0.50;0.32;;;;;;;24.32;38.56;102701.38;5025713;28;20021;-59
2022/08/06 05:49:53;;;;;;;1.00;0.47;;;;;;;24.33;38.76;102710.41;5023542;28;20171;-59
2022/08/06 05:52:36;;;;;;;1.48;0.65;;;;;;;24.33;38.58;102710.41;5024597;28;20037;-58
2022/08/06 05:55:06;;;;;;;1.25;0.50;;;;;;;24.32;38.56;102711.41;5024467;28;20085;-59
2022/08/06 05:57:42;;;;;;;1.42;0.73;;;;;;;24.32;38.82;102714.97;5024064;28;20034;-59
2022/08/06 06:00:11;;;;;;;1.00;0.50;;;;;;;24.26;38.83;102703.91;5024668;28;20026;-59
2022/08/06 06:02:40;;;;;;;0.52;0.30;;;;;;;24.27;38.71;102709.19;5025004;28;20026;-60
2022/08/06 06:05:06;;;;;;;0.32;0.30;;;;;;;24.32;38.86;102716.84;5024334;28;20033;-59
2022/08/06 06:07:32;;;;;;;1.30;0.45;;;;;;;24.33;38.90;102718.56;5025405;28;20094;-59
2022/08/06 06:09:57;;;;;;;0.82;0.45;;;;;;;24.32;38.77;102728.56;5021110;28;20029;-60
2022/08/06 06:12:23;;;;;;;1.77;0.60;;;;;;;24.32;39.03;102727.72;5004494;28;20096;-60
2022/08/06 06:14:51;;;;;;;1.42;0.55;;;;;;;24.33;38.98;102726.72;5003959;28;20102;-59
2022/08/06 06:17:31;;;;;;;0.47;0.40;;;;;;;24.32;38.83;102727.72;5004124;28;20101;-59
2022/08/06 06:20:03;;;;;;;0.93;0.47;;;;;;;24.31;38.99;102726.88;4987963;28;20029;-59
2022/08/06 06:22:35;;;;;;;2.85;1.13;;;;;;;24.30;39.07;102724.31;5004000;28;20034;-59
2022/08/06 06:25:15;;;;;;;1.63;0.40;;;;;;;24.31;39.07;102728.75;5003960;28;20076;-59
2022/08/06 06:28:01;;;;;;;1.67;0.45;;;;;;;24.31;39.09;102731.47;5004508;28;20053;-60
2022/08/06 06:30:32;;;;;;;0.45;0.43;;;;;;;24.29;39.05;102742.47;5003881;28;20050;-59
2022/08/06 06:33:14;;;;;;;1.25;0.40;;;;;;;24.29;39.08;102738.91;5005180;28;20026;-59
2022/08/06 06:35:59;;;;;;;0.68;0.52;;;;;;;24.23;39.02;102734.13;5004767;28;20034;-59
2022/08/06 06:38:46;;;;;;;0.60;0.40;;;;;;;24.30;39.25;102740.59;5005115;28;20050;-59
2022/08/06 06:41:23;;;;;;;1.77;0.55;;;;;;;24.29;39.14;102745.19;5004983;28;20030;-60
2022/08/06 06:44:03;;;;;;;1.77;0.50;;;;;;;24.29;39.26;102753.34;5003821;28;20038;-60
2022/08/06 06:46:36;;;;;;;1.58;0.50;;;;;;;24.25;39.01;102740.25;5005005;28;20026;-59
2022/08/06 06:49:08;;;;;;;1.08;0.60;;;;;;;24.30;39.02;102754.19;5003600;28;20049;-59
2022/08/06 06:51:38;;;;;;;0.77;0.40;;;;;;;24.29;39.11;102744.34;5024818;28;20038;-60
2022/08/06 06:54:03;;;;;;;1.27;0.50;;;;;;;24.30;39.10;102755.09;5027704;28;20072;-59
2022/08/06 06:56:33;;;;;;;1.92;0.50;;;;;;;24.29;38.94;102747.91;5029032;28;20033;-61
2022/08/06 06:59:06;;;;;;;1.48;0.60;;;;;;;24.30;39.11;102752.38;5028520;28;20026;-59
2022/08/06 07:01:32;;;;;;;1.70;1.00;;;;;;;24.30;39.28;102752.38;5010299;28;20028;-60
2022/08/06 07:04:00;;;;;;;2.05;0.52;;;;;;;24.22;39.32;102735.16;5028478;28;20034;-60
2022/08/06 07:06:26;;;;;;;1.05;0.40;;;;;;;24.31;39.18;102747.78;4993598;28;20076;-60
2022/08/06 07:08:52;;;;;;;1.48;0.50;;;;;;;24.30;39.07;102746.94;5011173;28;20180;-59
2022/08/06 07:11:20;;;;;;;0.90;0.60;;;;;;;24.24;39.14;102733.09;5024276;28;20494;-59
2022/08/06 07:13:46;;;;;;;0.95;0.32;;;;;;;24.31;39.33;102755.94;5047638;28;20025;-60
2022/08/06 07:16:15;;;;;;;0.63;0.40;;;;;;;24.31;39.42;102755.94;5048831;28;20025;-59
2022/08/06 07:18:41;;;;;;;0.52;0.40;;;;;;;24.31;39.18;102754.06;5030102;28;20029;-60
2022/08/06 07:21:07;;;;;;;1.77;0.40;;;;;;;24.31;39.36;102750.50;5030027;28;20029;-60
2022/08/06 07:23:33;;;;;;;1.90;0.65;;;;;;;24.31;39.27;102755.94;5029921;28;20028;-58
2022/08/06 07:25:59;;;;;;;1.05;0.40;;;;;;;24.30;39.17;102751.47;5029917;28;20029;-59
2022/08/06 07:28:28;;;;;;;1.13;0.40;;;;;;;24.30;39.16;102751.47;5030686;28;20043;-59
2022/08/06 07:30:53;;;;;;;0.82;0.40;;;;;;;24.30;39.24;102756.91;5030463;28;20025;-59
2022/08/06 07:33:19;;;;;;;0.82;0.55;;;;;;;24.24;39.29;102750.25;5030121;28;20078;-60
2022/08/06 07:35:47;;;;;;;0.80;0.50;;;;;;;24.32;39.36;102754.91;5047500;28;20037;-60
2022/08/06 07:38:14;;;;;;;1.42;0.50;;;;;;;24.31;39.27;102759.50;5029867;28;20029;-59
2022/08/06 07:40:43;;;;;;;1.70;0.40;;;;;;;24.31;39.43;102754.06;5030215;28;20037;-59
2022/08/06 07:43:16;;;;;;;0.73;0.50;;;;;;;24.28;39.47;102757.09;5029421;28;20025;-57
2022/08/06 07:45:42;;;;;;;1.88;0.60;;;;;;;24.31;39.47;102758.66;5047956;28;20029;-60
2022/08/06 07:48:10;;;;;;;0.82;0.40;;;;;;;24.32;39.35;102754.91;5047750;28;20080;-59
2022/08/06 07:50:35;;;;;;;1.13;0.40;;;;;;;24.32;39.29;102758.47;5029692;28;20076;-60
2022/08/06 07:53:01;;;;;;;1.02;0.40;;;;;;;24.32;39.57;102761.19;5048019;28;20083;-60
2022/08/06 07:55:28;;;;;;;2.00;0.45;;;;;;;24.32;39.45;102761.19;5029616;28;20025;-60
2022/08/06 07:57:54;;;;;;;0.95;0.25;;;;;;;24.33;39.27;102756.59;5029694;28;20040;-60
2022/08/06 08:00:20;;;;;;;1.13;0.38;;;;;;;24.34;39.30;102758.31;5029849;28;20564;-60
2022/08/06 08:06:17;;;;;;;0.77;0.40;;;;;;;24.35;39.35;102763.59;5029539;28;20025;-60
2022/08/06 08:08:15;;;;;;;1.42;0.40;;;;;;;24.31;39.15;102751.34;5047679;28;20093;-60
2022/08/06 08:10:41;;;;;;;1.02;0.50;;;;;;;24.36;39.14;102768.03;5038787;28;20034;-60
2022/08/06 08:13:07;;;;;;;1.48;0.68;;;;;;;24.36;39.15;102770.75;5009849;28;20033;-59
2022/08/06 08:15:32;;;;;;;0.77;0.30;;;;;;;24.37;39.33;102766.16;5027467;28;20487;-59
2022/08/06 08:17:58;;;;;;;1.45;0.40;;;;;;;24.37;39.21;102771.59;5027457;28;20057;-59
2022/08/06 08:20:25;;;;;;;0.82;0.40;;;;;;;24.34;39.44;102778.22;5027147;28;20138;-59
2022/08/06 08:22:50;;;;;;;0.90;0.40;;;;;;;24.36;39.33;102772.59;5010064;28;20022;-59
2022/08/06 08:25:18;;;;;;;0.90;0.50;;;;;;;24.35;39.34;102774.47;5009559;28;20030;-59
2022/08/06 08:27:43;;;;;;;1.15;0.40;;;;;;;24.33;39.48;102772.91;5026931;28;20829;-59
2022/08/06 08:30:10;;;;;;;0.73;0.35;;;;;;;24.34;39.52;102780.94;5027405;28;20041;-60
2022/08/06 08:32:35;;;;;;;1.60;0.40;;;;;;;24.33;39.69;102779.22;5026836;28;20022;-60
2022/08/06 08:35:01;;;;;;;1.23;0.60;;;;;;;24.24;39.29;102765.72;5026457;28;20025;-60
2022/08/06 08:37:26;;;;;;;1.15;0.40;;;;;;;24.34;39.36;102782.78;5009412;28;20426;-60
2022/08/06 08:39:51;;;;;;;0.80;0.50;;;;;;;24.34;39.42;102785.50;5026760;28;20026;-59
2022/08/06 08:42:25;;;;;;;0.73;0.32;;;;;;;24.31;39.55;102783.97;5027187;28;20022;-59
2022/08/06 08:44:51;;;;;;;1.15;0.60;;;;;;;24.32;39.35;102782.94;5008806;28;20094;-59
2022/08/06 08:47:19;;;;;;;0.50;0.50;;;;;;;24.23;39.44;102773.03;5027092;28;20034;-59
2022/08/06 08:49:52;;;;;;;0.40;0.40;;;;;;;24.33;39.52;102794.66;5026289;28;20050;-60
2022/08/06 08:52:21;;;;;;;0.75;0.43;;;;;;;24.32;39.48;102795.69;5027093;28;20052;-60
2022/08/06 08:54:50;;;;;;;1.65;0.68;;;;;;;24.33;39.41;102794.66;5008820;28;20097;-59
2022/08/06 08:57:16;;;;;;;1.52;0.57;;;;;;;24.33;39.39;102797.38;5009502;28;20026;-59
2022/08/06 08:59:41;;;;;;;0.57;0.40;;;;;;;24.34;39.44;102790.94;5026460;28;20044;-60
2022/08/06 09:02:09;;;;;;;0.75;0.50;;;;;;;24.37;39.52;102793.34;5026704;28;20463;-59
2022/08/06 09:04:35;;;;;;;2.03;0.60;;;;;;;24.37;39.38;102791.50;5007927;28;20086;-58
2022/08/06 09:07:02;;;;;;;1.17;0.40;;;;;;;24.39;39.24;102783.22;5009144;28;20034;-59
2022/08/06 09:09:27;;;;;;;1.20;0.40;;;;;;;24.41;39.36;102787.44;5026378;28;20037;-59
2022/08/06 09:11:53;;;;;;;1.48;0.60;;;;;;;24.42;39.08;102791.03;5026826;28;20021;-59
2022/08/06 09:14:20;;;;;;;0.77;0.40;;;;;;;24.34;39.10;102769.19;5045887;28;20033;-59
2022/08/06 09:16:45;;;;;;;1.38;0.65;;;;;;;24.47;39.17;102787.81;5045859;28;20086;-59
2022/08/06 09:19:11;;;;;;;1.08;0.40;;;;;;;24.48;39.30;102786.81;5028326;28;20018;-59
2022/08/06 09:21:38;;;;;;;1.98;0.60;;;;;;;24.50;39.07;102791.06;5045694;28;20013;-59
2022/08/06 09:24:04;;;;;;;1.48;0.50;;;;;;;24.53;39.01;102789.91;5028212;28;20033;-59
2022/08/06 09:26:33;;;;;;;0.98;0.50;;;;;;;24.54;39.26;102788.88;5046042;28;20029;-59
2022/08/06 09:28:58;;;;;;;1.48;0.47;;;;;;;24.52;39.07;102778.19;5045823;28;20100;-60
2022/08/06 09:31:23;;;;;;;2.33;0.40;;;;;;;24.56;38.94;102790.44;5045793;28;20036;-60
2022/08/06 09:34:06;;;;;;;2.67;1.00;;;;;;;24.55;38.88;102788.75;5045654;28;20518;-58
2022/08/06 09:36:42;;;;;;;1.73;0.50;;;;;;;24.55;38.84;102790.59;5045405;28;20029;-60
2022/08/06 09:39:08;;;;;;;1.75;0.52;;;;;;;24.53;38.86;102784.47;5045747;28;20043;-60
2022/08/06 09:41:34;;;;;;;1.27;0.50;;;;;;;24.52;38.76;102794.50;5045906;28;20035;-60
2022/08/06 09:44:09;;;;;;;1.15;0.40;;;;;;;24.44;38.88;102776.25;5045452;28;20029;-60
2022/08/06 09:46:53;;;;;;;0.93;0.52;;;;;;;24.53;38.60;102788.03;5045889;28;20092;-59
2022/08/06 09:49:19;;;;;;;1.70;0.47;;;;;;;24.53;38.87;102793.47;5045117;28;20466;-58
2022/08/06 09:51:44;;;;;;;1.42;0.50;;;;;;;24.56;39.04;102800.47;5027370;28;20051;-60
2022/08/06 09:54:15;;;;;;;0.43;0.40;;;;;;;24.55;38.97;102794.19;5045408;28;20045;-60
2022/08/06 09:56:44;;;;;;;1.15;0.43;;;;;;;24.59;39.06;102800.97;5045418;28;20045;-59
2022/08/06 09:59:09;;;;;;;;;;;;;;;24.60;39.04;102794.56;5028084;28;20029;-59
2022/08/06 10:01:43;;;;;;;1.10;0.60;;;;;;;24.63;39.33;102788.78;5045294;28;19932;-59
2022/08/06 10:04:26;;;;;;;1.65;0.43;;;;;;;24.65;39.37;102792.19;5045026;28;20032;-59
2022/08/06 10:06:55;;;;;;;1.20;0.50;;;;;;;24.68;39.64;102791.03;5044958;28;20037;-58
2022/08/06 10:09:20;;;;;;;1.75;0.63;;;;;;;24.69;39.80;102790.00;5045216;28;20467;-59
2022/08/06 10:11:46;;;;;;;2.05;0.85;;;;;;;24.69;40.03;102795.44;5027428;28;20034;-59
2022/08/06 10:14:25;;;;;;;1.15;0.50;;;;;;;24.71;39.48;102789.84;5025179;28;20026;-59
2022/08/06 10:17:04;;;;;;;1.25;0.50;;;;;;;24.69;39.59;102798.16;5025553;28;20030;-59
2022/08/06 10:19:30;;;;;;;1.17;0.52;;;;;;;24.59;39.16;102792.81;5024936;28;20034;-59
2022/08/06 10:22:03;;;;;;;2.17;0.40;;;;;;;24.68;38.88;102801.91;5025604;28;20014;-59
2022/08/06 10:24:29;;;;;;;1.17;0.50;;;;;;;24.61;38.76;102793.53;5025308;28;20029;-59
2022/08/06 10:26:55;;;;;;;1.40;0.80;;;;;;;24.64;38.83;102804.09;5024672;28;20030;-61
2022/08/06 10:29:21;;;;;;;1.95;0.50;;;;;;;24.64;38.79;102806.81;5007763;28;20108;-60
2022/08/06 10:31:46;;;;;;;0.88;0.40;;;;;;;24.63;38.89;102805.09;5025341;28;20076;-58
2022/08/06 10:34:22;;;;;;;3.13;1.00;;;;;;;24.57;38.87;102794.03;5025132;28;20553;-60
2022/08/06 10:37:03;;;;;;;0.70;0.45;;;;;;;24.62;38.76;102800.66;5025036;28;20064;-60
2022/08/06 10:39:33;;;;;;;0.50;0.40;;;;;;;24.62;38.74;102799.81;5007631;28;20033;-60
2022/08/06 10:41:59;;;;;;;1.10;0.57;;;;;;;24.53;38.92;102792.63;5025072;28;20030;-60
2022/08/06 10:44:24;;;;;;;1.33;0.47;;;;;;;24.61;38.99;102803.56;5024757;28;20048;-59
2022/08/06 10:46:51;;;;;;;1.25;0.43;;;;;;;24.61;38.82;102803.56;5007341;28;20026;-58
2022/08/06 10:49:18;;;;;;;0.80;0.70;;;;;;;24.61;38.92;102807.13;5007305;28;20029;-59
2022/08/06 10:51:43;;;;;;;1.65;0.50;;;;;;;24.62;39.17;102805.25;5006778;28;20042;-60
2022/08/06 10:54:09;;;;;;;0.57;0.40;;;;;;;24.61;38.57;102806.28;5007207;28;20041;-59
2022/08/06 10:56:34;;;;;;;2.25;0.70;;;;;;;24.61;39.30;102809.84;5024836;28;20036;-59
2022/08/06 10:59:00;;;;;;;0.98;0.57;;;;;;;24.61;39.44;102807.13;5007262;28;20030;-59
2022/08/06 11:01:44;;;;;;;1.45;0.40;;;;;;;24.60;39.51;102802.72;5025057;28;20014;-60
2022/08/06 11:04:12;;;;;;;1.17;0.50;;;;;;;24.61;39.76;102803.56;5024647;28;20141;-59
2022/08/06 11:06:46;;;;;;;1.60;0.60;;;;;;;24.60;39.72;102800.00;5024418;28;20037;-59
2022/08/06 11:09:49;;;;;;;1.00;0.68;;;;;;;24.61;39.41;102800.84;5025051;28;20442;-59
2022/08/06 11:12:40;;;;;;;1.30;0.60;;;;;;;24.62;39.92;102794.38;5024889;28;20042;-59
2022/08/06 11:15:06;;;;;;;2.25;0.90;;;;;;;24.63;40.07;102786.06;5023344;28;20065;-59
2022/08/06 11:17:42;;;;;;;0.68;0.43;;;;;;;24.65;40.06;102783.19;5007395;28;20081;-59
2022/08/06 11:20:08;;;;;;;0.73;0.40;;;;;;;24.66;40.16;102784.88;5024432;28;20030;-60
2022/08/06 11:22:37;;;;;;;1.17;0.70;;;;;;;24.67;40.08;102779.28;5025045;28;20034;-59
2022/08/06 11:25:04;;;;;;;1.55;0.60;;;;;;;24.69;40.31;102779.97;5024670;28;20091;-60
2022/08/06 11:27:47;;;;;;;1.08;0.40;;;;;;;24.66;40.27;102774.00;5025028;28;20022;-59
2022/08/06 11:30:12;;;;;;;1.20;0.40;;;;;;;24.74;40.47;102775.91;5024919;28;20030;-59
2022/08/06 11:32:49;;;;;;;1.38;0.40;;;;;;;24.76;40.42;102780.16;5024603;28;20091;-59
2022/08/06 11:35:32;;;;;;;1.25;0.60;;;;;;;24.78;40.45;102777.31;5024309;28;20026;-59
2022/08/06 11:37:58;;;;;;;1.95;0.40;;;;;;;24.79;40.51;102766.25;5024742;28;20022;-59